Time;durP1;ratioP1;P1;durP2;ratioP2;P2;SDS_P1;SDS_P2;PMS_P1;PMS_P2;Temp;Humidity;BMP_temperature;BMP_pressure;BME280_temperature;BME280_humidity;BME280_pressure;Samples;Min_cycle;Max_cycle;Signal;HPM_P1;HPM_P2
2021/04/02 00:01:39;;;;;;;4.05;1.35;;;20.70;36.10;;;;;;5074436;28;20025;-74
2021/04/02 00:04:04;;;;;;;4.70;1.00;;;20.70;36.30;;;;;;5074703;28;20020;-74
2021/04/02 00:06:30;;;;;;;4.78;1.15;;;20.70;36.10;;;;;;5074475;28;20484;-74
2021/04/02 00:08:55;;;;;;;4.43;1.00;;;20.70;36.20;;;;;;5074163;28;20106;-73
2021/04/02 00:11:21;;;;;;;4.78;1.48;;;20.60;36.20;;;;;;5074469;28;20032;-75
2021/04/02 00:13:47;;;;;;;2.88;0.95;;;20.70;36.20;;;;;;5074820;28;20017;-74
2021/04/02 00:16:18;;;;;;;3.40;1.30;;;20.60;36.20;;;;;;5074424;28;20358;-74
2021/04/02 00:18:44;;;;;;;3.50;1.00;;;20.70;36.10;;;;;;5074466;28;20066;-74
2021/04/02 00:21:11;;;;;;;4.68;1.10;;;20.70;36.20;;;;;;5074471;28;20044;-74
2021/04/02 00:23:38;;;;;;;5.15;1.10;;;20.60;36.20;;;;;;5074450;28;20028;-74
2021/04/02 00:26:07;;;;;;;3.38;0.93;;;20.60;36.10;;;;;;5073923;28;20110;-74
2021/04/02 00:28:33;;;;;;;4.50;1.23;;;20.60;36.20;;;;;;5075064;28;20456;-74
2021/04/02 00:30:59;;;;;;;2.95;0.90;;;20.60;36.10;;;;;;5074781;28;20043;-74
2021/04/02 00:33:27;;;;;;;4.00;1.10;;;20.60;36.20;;;;;;5075770;28;20021;-74
2021/04/02 00:35:53;;;;;;;4.78;1.33;;;20.60;36.10;;;;;;5074600;28;20346;-73
2021/04/02 00:38:19;;;;;;;4.53;1.27;;;20.60;36.10;;;;;;5073808;28;20025;-73
2021/04/02 00:40:49;;;;;;;4.45;1.08;;;20.60;36.10;;;;;;5074128;28;20032;-73
2021/04/02 00:43:15;;;;;;;2.97;0.80;;;20.60;36.10;;;;;;5074302;28;20025;-75
2021/04/02 00:45:42;;;;;;;4.38;1.13;;;20.60;36.20;;;;;;5075237;28;20047;-74
2021/04/02 00:48:08;;;;;;;1.95;0.68;;;20.60;36.10;;;;;;5073975;28;20063;-73
2021/04/02 00:50:48;;;;;;;3.45;1.00;;;20.60;36.20;;;;;;5073622;28;20027;-74
2021/04/02 00:53:15;;;;;;;3.35;0.95;;;20.60;36.10;;;;;;5073372;28;20184;-74
2021/04/02 00:55:41;;;;;;;4.43;1.17;;;20.60;36.10;;;;;;5073569;28;20109;-73
2021/04/02 00:58:14;;;;;;;2.75;0.73;;;20.50;36.10;;;;;;5073893;28;20039;-73
2021/04/02 01:00:40;;;;;;;3.90;0.80;;;20.60;36.20;;;;;;5073690;28;20027;-74
2021/04/02 01:03:07;;;;;;;3.80;1.00;;;20.60;36.10;;;;;;5073695;28;20036;-73
2021/04/02 01:05:36;;;;;;;4.38;1.10;;;20.60;36.10;;;;;;5073634;28;20057;-74
2021/04/02 01:08:09;;;;;;;3.55;0.93;;;20.50;36.10;;;;;;5073748;28;20454;-74
2021/04/02 01:10:36;;;;;;;2.53;1.05;;;20.50;36.10;;;;;;5073674;28;20024;-73
2021/04/02 01:13:06;;;;;;;4.22;0.93;;;20.50;36.10;;;;;;5073588;28;20028;-74
2021/04/02 01:15:44;;;;;;;3.25;0.90;;;20.50;36.20;;;;;;5073748;28;20020;-74
2021/04/02 01:18:30;;;;;;;2.35;0.75;;;20.50;36.10;;;;;;5073657;28;20028;-74
2021/04/02 01:20:59;;;;;;;1.75;0.93;;;20.50;36.10;;;;;;5073480;28;20055;-74
2021/04/02 01:23:31;;;;;;;3.33;1.02;;;20.50;36.20;;;;;;5073389;28;20023;-75
2021/04/02 01:26:34;;;;;;;2.75;1.00;;;20.50;36.10;;;;;;5073273;28;20070;-74
2021/04/02 01:29:18;;;;;;;2.88;0.93;;;20.50;36.10;;;;;;5063757;28;20044;-74
2021/04/02 01:31:49;;;;;;;6.22;0.95;;;20.50;36.10;;;;;;5073412;28;20031;-74
2021/04/02 01:34:20;;;;;;;3.03;0.88;;;20.50;36.20;;;;;;5073198;28;20025;-74
2021/04/02 01:36:48;;;;;;;4.22;1.08;;;20.50;36.20;;;;;;5073088;28;20391;-74
2021/04/02 01:39:14;;;;;;;2.92;1.13;;;20.50;36.10;;;;;;5073161;28;20028;-74
2021/04/02 01:41:43;;;;;;;3.53;0.95;;;20.50;36.10;;;;;;5073180;28;20020;-75
2021/04/02 01:44:10;;;;;;;2.58;1.10;;;20.50;36.10;;;;;;5073083;28;20017;-73
2021/04/02 01:46:37;;;;;;;4.53;1.13;;;20.50;36.20;;;;;;5073276;28;20115;-73
2021/04/02 01:49:06;;;;;;;3.25;0.88;;;20.50;36.10;;;;;;5074142;28;20030;-73
2021/04/02 01:51:34;;;;;;;3.00;1.05;;;20.50;36.20;;;;;;5080417;28;20035;-73
2021/04/02 01:54:02;;;;;;;2.97;1.13;;;20.50;36.10;;;;;;5079415;28;20059;-73
2021/04/02 01:56:30;;;;;;;4.28;1.00;;;20.50;36.20;;;;;;5077225;28;20058;-73
2021/04/02 01:58:57;;;;;;;1.63;0.73;;;20.50;36.20;;;;;;5076951;28;20693;-73
2021/04/02 02:01:31;;;;;;;2.45;0.88;;;20.50;36.10;;;;;;5077213;28;20074;-73
2021/04/02 02:03:59;;;;;;;2.55;1.13;;;20.50;36.20;;;;;;5077011;28;20487;-73
2021/04/02 02:06:25;;;;;;;5.00;1.10;;;20.50;36.20;;;;;;5076823;28;20119;-71
2021/04/02 02:08:56;;;;;;;3.33;1.10;;;20.50;36.10;;;;;;5076814;28;20460;-73
2021/04/02 02:11:22;;;;;;;2.38;0.70;;;20.50;36.10;;;;;;5076780;28;20051;-73
2021/04/02 02:13:55;;;;;;;3.22;0.93;;;20.50;36.10;;;;;;5076497;28;20031;-73
2021/04/02 02:16:22;;;;;;;2.83;0.90;;;20.50;36.10;;;;;;5076404;28;20419;-73
2021/04/02 02:18:53;;;;;;;3.45;0.88;;;20.50;36.10;;;;;;5076707;28;20461;-73
2021/04/02 02:21:20;;;;;;;2.53;0.75;;;20.50;36.10;;;;;;5076505;28;20059;-73
2021/04/02 02:23:46;;;;;;;4.68;1.05;;;20.50;36.10;;;;;;5076536;28;20472;-73
2021/04/02 02:26:12;;;;;;;3.65;1.08;;;20.40;36.20;;;;;;5076571;28;20038;-73
2021/04/02 02:28:38;;;;;;;2.83;1.08;;;20.40;36.10;;;;;;5076420;28;20071;-73
2021/04/02 02:31:05;;;;;;;2.20;0.70;;;20.50;36.10;;;;;;5076342;28;20610;-74
2021/04/02 02:33:31;;;;;;;3.30;1.00;;;20.50;36.10;;;;;;5076317;28;20032;-73
2021/04/02 02:35:59;;;;;;;2.33;0.80;;;20.50;36.10;;;;;;5076298;28;20399;-73
2021/04/02 02:38:25;;;;;;;1.63;0.65;;;20.40;36.10;;;;;;5076396;28;20032;-73
2021/04/02 02:40:51;;;;;;;4.13;1.02;;;20.40;36.10;;;;;;5076134;28;20103;-73
2021/04/02 02:43:16;;;;;;;4.78;1.05;;;20.40;36.10;;;;;;5076464;28;20090;-74
2021/04/02 02:45:42;;;;;;;3.13;0.80;;;20.40;36.10;;;;;;5081582;28;20023;-73
2021/04/02 02:48:09;;;;;;;4.05;1.00;;;20.40;36.10;;;;;;5078289;28;20032;-74
2021/04/02 02:50:38;;;;;;;2.40;0.73;;;20.40;36.20;;;;;;5076651;28;20027;-73
2021/04/02 02:53:05;;;;;;;2.08;0.82;;;20.40;36.10;;;;;;5076615;28;20107;-73
2021/04/02 02:55:33;;;;;;;1.70;0.82;;;20.40;36.10;;;;;;5076575;28;20028;-74
2021/04/02 02:58:00;;;;;;;3.08;0.80;;;20.40;36.10;;;;;;5074576;28;20064;-74
2021/04/02 03:00:31;;;;;;;3.63;1.20;;;20.40;36.10;;;;;;5075114;28;20032;-74
2021/04/02 03:03:00;;;;;;;4.05;1.17;;;20.40;36.10;;;;;;5074608;28;20035;-74
2021/04/02 03:05:28;;;;;;;2.95;1.00;;;20.40;36.10;;;;;;5076093;28;20039;-74
2021/04/02 03:07:56;;;;;;;2.70;0.75;;;20.40;36.10;;;;;;5075961;28;20480;-73
2021/04/02 03:10:24;;;;;;;4.80;1.25;;;20.40;36.10;;;;;;5075785;28;20063;-74
2021/04/02 03:12:50;;;;;;;2.90;0.90;;;20.40;36.10;;;;;;5075766;28;20017;-74
2021/04/02 03:15:18;;;;;;;2.70;0.90;;;20.40;36.10;;;;;;5075722;28;20024;-74
2021/04/02 03:17:47;;;;;;;2.28;0.70;;;20.40;36.10;;;;;;5075696;28;20024;-74
2021/04/02 03:20:13;;;;;;;4.85;1.35;;;20.40;36.10;;;;;;5075446;28;20594;-74
2021/04/02 03:22:38;;;;;;;3.92;0.80;;;20.40;36.10;;;;;;5075606;28;20032;-74
2021/04/02 03:25:11;;;;;;;3.85;1.23;;;20.40;36.10;;;;;;5075853;28;20024;-74
2021/04/02 03:27:41;;;;;;;6.03;1.08;;;20.40;36.10;;;;;;5075604;28;20028;-74
2021/04/02 03:30:09;;;;;;;3.42;0.98;;;20.40;36.10;;;;;;5075634;28;20028;-74
2021/04/02 03:32:39;;;;;;;2.65;0.77;;;20.30;36.10;;;;;;5074269;28;20533;-73
2021/04/02 03:35:06;;;;;;;2.92;0.93;;;20.40;36.10;;;;;;5075436;28;20030;-73
2021/04/02 03:37:34;;;;;;;2.95;1.00;;;20.40;36.10;;;;;;5075524;28;20128;-73
2021/04/02 03:40:01;;;;;;;2.00;0.75;;;20.40;36.00;;;;;;5075202;28;20025;-74
2021/04/02 03:42:28;;;;;;;2.53;0.80;;;20.40;36.00;;;;;;5075038;28;20035;-74
2021/04/02 03:44:55;;;;;;;5.50;1.10;;;20.40;36.10;;;;;;5075469;28;20029;-73
2021/04/02 03:47:21;;;;;;;1.63;0.63;;;20.30;36.00;;;;;;5074814;28;20097;-74
2021/04/02 03:49:49;;;;;;;2.90;0.82;;;20.40;36.10;;;;;;5074012;28;20371;-73
2021/04/02 03:52:20;;;;;;;2.72;1.00;;;20.30;36.10;;;;;;5075056;28;20027;-73
2021/04/02 03:54:50;;;;;;;3.17;0.95;;;20.30;36.10;;;;;;5079853;28;20032;-73
2021/04/02 03:57:19;;;;;;;3.05;0.75;;;20.30;36.10;;;;;;5076467;28;20484;-74
2021/04/02 03:59:48;;;;;;;3.13;0.80;;;20.30;36.10;;;;;;5075050;28;20117;-74
2021/04/02 04:02:15;;;;;;;3.95;1.20;;;20.30;36.10;;;;;;5074723;28;20027;-73
2021/04/02 04:04:44;;;;;;;4.65;1.17;;;20.30;36.10;;;;;;5074935;28;20038;-74
2021/04/02 04:07:10;;;;;;;2.17;0.80;;;20.30;36.00;;;;;;5079780;28;20039;-73
2021/04/02 04:09:38;;;;;;;3.08;0.70;;;20.30;36.00;;;;;;5079761;28;20112;-73
2021/04/02 04:12:07;;;;;;;3.83;0.85;;;20.30;36.00;;;;;;5078055;28;20029;-74
2021/04/02 04:14:35;;;;;;;4.43;0.93;;;20.30;36.00;;;;;;5077067;28;20067;-74
2021/04/02 04:17:01;;;;;;;5.43;1.38;;;20.40;36.00;;;;;;5086332;28;20044;-73
2021/04/02 04:19:29;;;;;;;4.28;1.00;;;20.30;35.90;;;;;;5081940;28;20020;-73
2021/04/02 04:21:57;;;;;;;3.40;1.08;;;20.40;36.00;;;;;;5077890;28;20083;-73
2021/04/02 04:24:26;;;;;;;3.58;0.80;;;20.40;35.90;;;;;;5079074;28;20028;-74
2021/04/02 04:26:55;;;;;;;2.08;0.70;;;20.40;35.90;;;;;;5078043;28;20028;-73
2021/04/02 04:29:32;;;;;;;3.95;1.25;;;20.40;35.90;;;;;;5075091;28;20016;-72
2021/04/02 04:31:59;;;;;;;3.17;0.80;;;20.40;35.90;;;;;;5074717;28;20034;-73
2021/04/02 04:34:25;;;;;;;2.38;0.90;;;20.40;35.90;;;;;;5074090;28;20086;-74
2021/04/02 04:36:53;;;;;;;4.65;1.20;;;20.40;35.90;;;;;;5074197;28;20107;-74
2021/04/02 04:39:21;;;;;;;2.50;0.85;;;20.40;35.80;;;;;;5074216;28;20040;-73
2021/04/02 04:41:50;;;;;;;3.35;0.95;;;20.50;35.80;;;;;;5073942;28;20027;-74
2021/04/02 04:44:17;;;;;;;4.22;0.80;;;20.50;35.80;;;;;;5083770;28;20472;-74
2021/04/02 04:46:43;;;;;;;4.72;1.10;;;20.50;35.80;;;;;;5079815;28;20385;-73
2021/04/02 04:49:08;;;;;;;2.30;0.80;;;20.50;35.80;;;;;;5074011;28;20032;-73
2021/04/02 04:51:35;;;;;;;1.88;0.70;;;20.50;35.70;;;;;;5074047;28;20527;-73
2021/04/02 04:54:03;;;;;;;4.53;0.93;;;20.50;35.70;;;;;;5073870;28;20021;-73
2021/04/02 04:56:31;;;;;;;2.55;0.80;;;20.50;35.80;;;;;;5073812;28;20020;-73
2021/04/02 04:59:00;;;;;;;3.70;0.88;;;20.50;35.70;;;;;;5073981;28;20484;-74
2021/04/02 05:01:28;;;;;;;2.83;0.85;;;20.50;35.70;;;;;;5076849;28;20025;-72
2021/04/02 05:03:55;;;;;;;3.95;0.98;;;20.50;35.80;;;;;;5076540;28;20082;-73
2021/04/02 05:06:23;;;;;;;4.63;1.13;;;20.50;35.80;;;;;;5074132;28;20036;-73
2021/04/02 05:08:51;;;;;;;2.72;0.90;;;20.50;35.70;;;;;;5074407;28;20157;-74
2021/04/02 05:11:21;;;;;;;3.85;0.90;;;20.50;35.70;;;;;;5073984;28;20028;-74
2021/04/02 05:13:49;;;;;;;2.63;0.75;;;20.50;35.70;;;;;;5074272;28;20040;-74
2021/04/02 05:16:15;;;;;;;6.05;1.10;;;20.50;35.80;;;;;;5074560;28;20117;-73
2021/04/02 05:18:43;;;;;;;4.57;0.75;;;20.50;35.70;;;;;;5073693;28;20503;-73
2021/04/02 05:21:08;;;;;;;4.35;0.80;;;20.50;35.60;;;;;;5073496;28;20045;-73
2021/04/02 05:23:34;;;;;;;2.90;0.90;;;20.50;35.70;;;;;;5071911;28;20031;-74
2021/04/02 05:25:59;;;;;;;4.15;1.23;;;20.50;35.70;;;;;;5073368;28;20020;-74
2021/04/02 05:28:25;;;;;;;2.45;0.80;;;20.50;35.80;;;;;;5073660;28;20381;-74
2021/04/02 05:30:51;;;;;;;1.95;0.73;;;20.50;35.70;;;;;;5073798;28;20063;-73
2021/04/02 05:33:16;;;;;;;3.55;0.88;;;20.50;35.70;;;;;;5073660;28;20051;-74
2021/04/02 05:35:43;;;;;;;2.25;0.70;;;20.50;35.70;;;;;;5073684;28;20016;-74
2021/04/02 05:38:09;;;;;;;2.92;1.00;;;20.50;35.60;;;;;;5079240;28;20036;-73
2021/04/02 05:40:35;;;;;;;4.88;1.20;;;20.50;35.60;;;;;;5073699;28;20028;-73
2021/04/02 05:43:15;;;;;;;4.05;1.10;;;20.50;35.60;;;;;;5073091;28;20078;-73
2021/04/02 05:45:41;;;;;;;1.88;0.80;;;20.50;35.70;;;;;;5073273;28;20027;-73
2021/04/02 05:48:08;;;;;;;3.70;0.85;;;20.50;35.70;;;;;;5073081;28;20041;-74
2021/04/02 05:50:36;;;;;;;4.38;1.10;;;20.50;35.70;;;;;;5073289;28;20032;-74
2021/04/02 05:53:05;;;;;;;4.18;1.02;;;20.50;35.60;;;;;;5073381;28;20039;-74
2021/04/02 05:55:36;;;;;;;4.80;1.10;;;20.50;35.60;;;;;;5073605;28;20025;-73
2021/04/02 05:58:06;;;;;;;3.17;1.20;;;20.50;35.60;;;;;;5073381;28;20021;-73
2021/04/02 06:00:33;;;;;;;2.72;0.90;;;20.50;35.60;;;;;;5073301;28;20021;-73
2021/04/02 06:02:59;;;;;;;4.47;1.13;;;20.50;35.60;;;;;;5073431;28;20031;-73
2021/04/02 06:05:25;;;;;;;4.40;1.10;;;20.50;35.60;;;;;;5073438;28;20024;-73
2021/04/02 06:07:52;;;;;;;2.58;0.98;;;20.50;35.60;;;;;;5072975;28;20147;-74
2021/04/02 06:10:18;;;;;;;4.10;1.30;;;20.50;35.60;;;;;;5072972;28;20025;-74
2021/04/02 06:12:43;;;;;;;5.40;1.02;;;20.50;35.60;;;;;;5073177;28;20393;-73
2021/04/02 06:15:11;;;;;;;3.15;0.88;;;20.50;35.60;;;;;;5072988;28;20024;-73
2021/04/02 06:18:09;;;;;;;2.95;1.10;;;20.50;35.50;;;;;;5073323;28;20033;-73
2021/04/02 06:20:38;;;;;;;5.32;0.90;;;20.50;35.50;;;;;;5072793;28;20120;-71
2021/04/02 06:23:13;;;;;;;3.67;0.88;;;20.50;35.50;;;;;;5072617;28;20025;-73
2021/04/02 06:25:39;;;;;;;;;;;20.50;35.60;;;;;;5073410;28;20021;-74
2021/04/02 06:28:15;;;;;;;4.78;1.02;;;20.50;35.60;;;;;;5072754;28;19935;-71
2021/04/02 06:30:42;;;;;;;4.80;1.20;;;20.50;35.60;;;;;;5072884;28;20028;-73
2021/04/02 06:33:09;;;;;;;2.90;1.17;;;20.50;35.50;;;;;;5072768;28;20056;-73
2021/04/02 06:35:43;;;;;;;2.55;0.80;;;20.50;35.60;;;;;;5072933;28;20036;-74
2021/04/02 06:38:09;;;;;;;3.25;1.20;;;20.50;35.60;;;;;;5076479;28;20099;-73
2021/04/02 06:40:35;;;;;;;5.22;1.00;;;20.50;35.50;;;;;;5076272;28;20071;-73
2021/04/02 06:43:03;;;;;;;7.30;1.33;;;20.50;35.60;;;;;;5076336;28;20529;-73
2021/04/02 06:45:28;;;;;;;6.05;1.70;;;20.50;35.50;;;;;;5076104;28;20081;-73
2021/04/02 06:48:10;;;;;;;4.72;1.10;;;20.50;35.60;;;;;;5076190;28;20032;-73
2021/04/02 06:50:36;;;;;;;4.32;1.25;;;20.50;35.50;;;;;;5075839;28;20039;-74
2021/04/02 06:53:04;;;;;;;5.22;1.17;;;20.50;35.50;;;;;;5076083;28;20024;-73
2021/04/02 06:55:30;;;;;;;5.53;1.20;;;20.50;35.50;;;;;;5075990;28;20039;-73
2021/04/02 06:58:03;;;;;;;3.60;1.15;;;20.60;35.50;;;;;;5075954;28;20021;-73
2021/04/02 07:00:29;;;;;;;4.55;1.10;;;20.60;35.50;;;;;;5075743;28;20081;-73
2021/04/02 07:02:55;;;;;;;1.90;0.88;;;20.50;35.50;;;;;;5075691;28;20096;-73
2021/04/02 07:05:22;;;;;;;3.25;1.00;;;20.50;35.50;;;;;;5075807;28;20028;-73
2021/04/02 07:07:59;;;;;;;3.97;1.15;;;20.50;35.50;;;;;;5075691;28;20086;-72
2021/04/02 07:10:25;;;;;;;4.57;1.10;;;20.50;35.50;;;;;;5075763;28;20472;-73
2021/04/02 07:12:52;;;;;;;3.05;0.80;;;20.50;35.40;;;;;;5075742;28;20032;-73
2021/04/02 07:15:18;;;;;;;4.43;1.38;;;20.50;35.50;;;;;;5075408;28;20100;-73
2021/04/02 07:17:45;;;;;;;4.80;1.23;;;20.50;35.40;;;;;;5074445;28;20063;-73
2021/04/02 07:20:12;;;;;;;4.13;1.10;;;20.50;35.50;;;;;;5075267;28;20037;-73
2021/04/02 07:22:42;;;;;;;3.58;1.10;;;20.60;35.50;;;;;;5075785;28;20052;-73
2021/04/02 07:25:09;;;;;;;4.93;1.20;;;20.50;35.50;;;;;;5075535;28;20025;-73
2021/04/02 07:27:36;;;;;;;4.10;0.90;;;20.50;35.50;;;;;;5075539;28;20373;-72
2021/04/02 07:30:08;;;;;;;5.00;1.02;;;20.50;35.40;;;;;;5081813;28;20013;-73
2021/04/02 07:32:38;;;;;;;3.47;0.95;;;20.50;35.40;;;;;;5074340;28;20092;-73
2021/04/02 07:35:04;;;;;;;4.13;0.95;;;20.50;35.40;;;;;;5075337;28;20054;-73
2021/04/02 07:37:38;;;;;;;6.32;1.42;;;20.60;35.40;;;;;;5075092;28;20031;-73
2021/04/02 07:40:09;;;;;;;3.78;0.80;;;20.60;35.50;;;;;;5075332;28;20025;-73
2021/04/02 07:42:34;;;;;;;3.63;0.95;;;20.60;35.40;;;;;;5074947;28;20012;-74
2021/04/02 07:45:00;;;;;;;3.25;1.05;;;20.50;35.40;;;;;;5075290;28;20495;-74
2021/04/02 07:47:26;;;;;;;4.97;1.38;;;20.60;35.30;;;;;;5075040;28;20195;-74
2021/04/02 07:49:54;;;;;;;3.72;1.10;;;20.60;35.30;;;;;;5075059;28;20020;-74
2021/04/02 07:52:39;;;;;;;4.18;1.10;;;20.60;35.30;;;;;;5074995;28;20089;-73
2021/04/02 07:55:08;;;;;;;3.22;0.90;;;20.60;35.30;;;;;;5075179;28;20384;-74
2021/04/02 07:57:55;;;;;;;3.10;1.10;;;20.60;35.30;;;;;;5074695;28;20085;-74
2021/04/02 08:00:23;;;;;;;4.97;1.10;;;20.60;35.40;;;;;;5073295;28;20110;-74
2021/04/02 08:03:11;;;;;;;5.63;1.00;;;20.60;35.30;;;;;;5074873;28;20020;-74
2021/04/02 08:05:39;;;;;;;3.10;0.80;;;20.60;35.30;;;;;;5074554;28;20028;-74
2021/04/02 08:08:12;;;;;;;3.70;1.20;;;20.60;35.20;;;;;;5074480;28;20438;-74
2021/04/02 08:10:38;;;;;;;4.60;1.17;;;20.60;35.30;;;;;;5074564;28;20039;-74
2021/04/02 08:13:17;;;;;;;3.28;0.90;;;20.60;35.30;;;;;;5074354;28;20421;-74
2021/04/02 08:15:43;;;;;;;3.58;0.90;;;20.60;35.30;;;;;;5074296;28;20488;-74
2021/04/02 08:18:25;;;;;;;2.72;0.90;;;20.50;35.30;;;;;;5074328;28;20029;-74
2021/04/02 08:20:54;;;;;;;3.28;1.10;;;20.60;35.30;;;;;;5074195;28;20122;-74
2021/04/02 08:23:22;;;;;;;2.88;0.70;;;20.60;35.20;;;;;;5074528;28;20079;-74
2021/04/02 08:25:53;;;;;;;2.63;0.98;;;20.60;35.30;;;;;;5074115;28;20024;-74
2021/04/02 08:28:23;;;;;;;4.22;1.08;;;20.60;35.30;;;;;;5074114;28;20081;-74
2021/04/02 08:30:59;;;;;;;3.90;1.08;;;20.60;35.20;;;;;;5074034;28;20032;-74
2021/04/02 08:33:24;;;;;;;3.22;0.70;;;20.60;35.20;;;;;;5074260;28;20063;-74
2021/04/02 08:35:50;;;;;;;2.95;0.88;;;20.60;35.30;;;;;;5073773;28;20445;-74
2021/04/02 08:38:16;;;;;;;3.45;0.80;;;20.60;35.30;;;;;;5074169;28;20029;-74
2021/04/02 08:40:41;;;;;;;1.75;0.60;;;20.60;35.30;;;;;;5073672;28;20025;-74
2021/04/02 08:43:12;;;;;;;3.92;1.10;;;20.60;35.30;;;;;;5074338;28;20107;-74
2021/04/02 08:45:39;;;;;;;2.00;0.80;;;20.60;35.30;;;;;;5074003;28;20533;-72
2021/04/02 08:48:06;;;;;;;3.72;1.05;;;20.60;35.30;;;;;;5073695;28;20041;-73
2021/04/02 08:50:33;;;;;;;4.35;1.08;;;20.60;35.20;;;;;;5074174;28;20442;-74
2021/04/02 08:53:09;;;;;;;3.58;0.90;;;20.60;35.30;;;;;;5074005;28;20508;-74
2021/04/02 08:55:35;;;;;;;6.18;1.10;;;20.60;35.20;;;;;;5075296;28;20128;-74
2021/04/02 08:58:02;;;;;;;3.53;0.88;;;20.60;35.20;;;;;;5076962;28;20523;-74
2021/04/02 09:00:28;;;;;;;4.35;1.08;;;20.60;35.30;;;;;;5075941;28;20033;-74
2021/04/02 09:02:55;;;;;;;4.22;1.00;;;20.60;35.30;;;;;;5075425;28;20150;-74
2021/04/02 09:05:21;;;;;;;2.22;0.80;;;20.60;35.20;;;;;;5074879;28;20024;-74
2021/04/02 09:07:46;;;;;;;4.32;1.00;;;20.60;35.20;;;;;;5077245;28;20511;-74
2021/04/02 09:10:17;;;;;;;3.85;1.15;;;20.60;35.20;;;;;;5076099;28;20021;-75
2021/04/02 09:12:51;;;;;;;2.53;0.98;;;20.60;35.20;;;;;;5074604;28;20067;-74
2021/04/02 09:15:24;;;;;;;;;;;20.60;35.20;;;;;;5074453;28;20146;-75
2021/04/02 09:17:50;;;;;;;2.72;0.88;;;20.60;35.20;;;;;;5073482;28;19904;-74
2021/04/02 09:20:16;;;;;;;3.80;0.95;;;20.60;35.20;;;;;;5073172;28;20052;-74
2021/04/02 09:22:43;;;;;;;2.03;0.60;;;20.60;35.30;;;;;;5073207;28;20034;-74
2021/04/02 09:25:15;;;;;;;3.47;1.02;;;20.60;35.20;;;;;;5073214;28;20102;-74
2021/04/02 09:27:40;;;;;;;3.78;0.68;;;20.60;35.20;;;;;;5073082;28;20044;-74
2021/04/02 09:30:07;;;;;;;3.30;0.90;;;20.60;35.20;;;;;;5073201;28;20024;-74
2021/04/02 09:32:33;;;;;;;2.17;0.88;;;20.60;35.20;;;;;;5073243;28;20495;-74
2021/04/02 09:35:04;;;;;;;4.20;0.90;;;20.60;35.20;;;;;;5073282;28;20032;-74
2021/04/02 09:37:31;;;;;;;2.53;0.77;;;20.60;35.20;;;;;;5072749;28;20376;-74
2021/04/02 09:40:03;;;;;;;4.60;1.10;;;20.60;35.20;;;;;;5072704;28;20483;-73
2021/04/02 09:42:32;;;;;;;2.78;0.90;;;20.60;35.10;;;;;;5072617;28;20506;-74
2021/04/02 09:45:06;;;;;;;2.00;0.68;;;20.60;35.10;;;;;;5071319;28;20023;-73
2021/04/02 09:47:41;;;;;;;;;;;20.60;35.10;;;;;;5073135;28;20032;-74
2021/04/02 09:50:08;;;;;;;;;;;20.70;35.10;;;;;;5071962;28;19904;-75
2021/04/02 09:52:36;;;;;;;2.50;1.00;;;20.70;35.10;;;;;;5072647;28;20360;-74
2021/04/02 09:55:04;;;;;;;3.67;0.95;;;20.60;35.10;;;;;;5072651;28;20038;-74
2021/04/02 09:57:29;;;;;;;2.97;0.90;;;20.70;35.20;;;;;;5072499;28;20500;-74
2021/04/02 09:59:55;;;;;;;2.60;0.82;;;20.60;35.10;;;;;;5072660;28;20032;-74
2021/04/02 10:02:20;;;;;;;3.22;1.00;;;20.60;35.10;;;;;;5072594;28;20542;-74
2021/04/02 10:04:46;;;;;;;3.83;1.30;;;20.60;35.00;;;;;;5071236;28;20036;-75
2021/04/02 10:07:11;;;;;;;3.40;0.82;;;20.60;35.00;;;;;;5071658;28;20485;-74
2021/04/02 10:09:37;;;;;;;3.85;0.90;;;20.70;35.10;;;;;;5071897;28;20059;-74
2021/04/02 10:12:03;;;;;;;2.63;0.90;;;20.70;35.10;;;;;;5075336;28;20439;-73
2021/04/02 10:14:28;;;;;;;5.43;0.98;;;20.70;35.10;;;;;;5076898;28;20021;-74
2021/04/02 10:16:54;;;;;;;2.15;0.70;;;20.70;35.00;;;;;;5076614;28;20016;-74
2021/04/02 10:19:19;;;;;;;2.53;0.93;;;20.70;35.10;;;;;;5076680;28;20016;-74
2021/04/02 10:21:46;;;;;;;2.45;0.70;;;20.70;35.10;;;;;;5076579;28;20048;-74
2021/04/02 10:24:12;;;;;;;3.85;1.00;;;20.70;35.10;;;;;;5076831;28;20107;-74
2021/04/02 10:26:38;;;;;;;4.03;0.82;;;20.70;35.10;;;;;;5076227;28;20028;-74
2021/04/02 10:29:04;;;;;;;3.78;0.90;;;20.60;35.10;;;;;;5076688;28;20028;-74
2021/04/02 10:31:30;;;;;;;1.30;0.60;;;20.70;35.10;;;;;;5076478;28;20025;-74
2021/04/02 10:33:56;;;;;;;2.15;0.80;;;20.70;35.00;;;;;;5076391;28;20079;-74
2021/04/02 10:36:22;;;;;;;3.55;0.70;;;20.70;35.00;;;;;;5076570;28;20411;-74
2021/04/02 10:38:48;;;;;;;2.50;0.80;;;20.70;35.10;;;;;;5076334;28;20078;-74
2021/04/02 10:41:14;;;;;;;3.60;0.95;;;20.70;35.10;;;;;;5076368;28;20029;-74
2021/04/02 10:43:40;;;;;;;3.55;0.93;;;20.70;35.10;;;;;;5076264;28;20500;-74
2021/04/02 10:46:05;;;;;;;4.18;1.13;;;20.70;35.10;;;;;;5076223;28;20103;-74
2021/04/02 10:48:31;;;;;;;4.75;1.30;;;20.60;35.10;;;;;;5076340;28;20124;-73
2021/04/02 10:50:57;;;;;;;3.08;0.93;;;20.70;35.10;;;;;;5076261;28;20052;-74
2021/04/02 10:53:25;;;;;;;3.05;0.90;;;20.70;35.10;;;;;;5076236;28;20028;-74
2021/04/02 10:55:52;;;;;;;3.70;1.02;;;20.70;35.10;;;;;;5075669;28;20032;-73
2021/04/02 10:58:17;;;;;;;3.65;1.10;;;20.70;35.10;;;;;;5075654;28;20066;-73
2021/04/02 11:00:43;;;;;;;4.10;0.80;;;20.70;35.10;;;;;;5076019;28;20024;-73
2021/04/02 11:03:09;;;;;;;3.25;0.85;;;20.60;35.10;;;;;;5076128;28;20028;-73
2021/04/02 11:05:35;;;;;;;3.50;1.00;;;20.60;35.10;;;;;;5075888;28;20028;-73
2021/04/02 11:08:01;;;;;;;3.40;1.15;;;20.70;35.10;;;;;;5075587;28;20032;-73
2021/04/02 11:10:28;;;;;;;4.55;0.95;;;20.70;35.10;;;;;;5075640;28;20028;-73
2021/04/02 11:12:53;;;;;;;2.53;0.90;;;20.70;35.10;;;;;;5075748;28;20039;-74
2021/04/02 11:15:19;;;;;;;2.58;1.05;;;20.70;35.00;;;;;;5075779;28;20013;-73
2021/04/02 11:17:46;;;;;;;2.67;1.05;;;20.70;35.00;;;;;;5075665;28;20119;-73
2021/04/02 11:20:17;;;;;;;3.20;0.85;;;20.70;35.10;;;;;;5074379;28;20040;-73
2021/04/02 11:22:43;;;;;;;3.83;1.02;;;20.70;35.00;;;;;;5075163;28;20028;-73
2021/04/02 11:25:11;;;;;;;2.78;0.93;;;20.70;35.00;;;;;;5075299;28;20490;-73
2021/04/02 11:27:37;;;;;;;2.08;0.80;;;20.70;35.10;;;;;;5075589;28;20041;-74
2021/04/02 11:30:05;;;;;;;3.83;1.15;;;20.70;35.10;;;;;;5075308;28;20024;-73
2021/04/02 11:32:31;;;;;;;2.28;0.93;;;20.70;35.00;;;;;;5075253;28;20028;-73
2021/04/02 11:34:57;;;;;;;2.25;0.70;;;20.70;35.00;;;;;;5075154;28;20532;-73
2021/04/02 11:37:22;;;;;;;3.78;1.00;;;20.70;35.00;;;;;;5075369;28;20028;-73
2021/04/02 11:39:49;;;;;;;3.30;0.70;;;20.80;35.00;;;;;;5075070;28;20021;-73
2021/04/02 11:42:15;;;;;;;2.72;0.90;;;20.80;35.00;;;;;;5075084;28;20024;-73
2021/04/02 11:44:40;;;;;;;2.95;1.20;;;20.80;35.00;;;;;;5073886;28;20028;-74
2021/04/02 11:47:06;;;;;;;2.70;0.70;;;20.80;34.90;;;;;;5075293;28;20229;-73
2021/04/02 11:49:31;;;;;;;3.50;1.00;;;20.70;34.90;;;;;;5075072;28;20056;-73
2021/04/02 11:51:57;;;;;;;1.65;0.60;;;20.80;34.90;;;;;;5073786;28;20073;-73
2021/04/02 11:54:24;;;;;;;2.03;0.80;;;20.80;34.90;;;;;;5077176;28;20063;-73
2021/04/02 11:56:50;;;;;;;3.72;0.90;;;20.80;34.90;;;;;;5082010;28;20027;-73
2021/04/02 11:59:16;;;;;;;3.60;1.30;;;20.80;35.00;;;;;;5074655;28;20096;-73
2021/04/02 12:01:42;;;;;;;2.35;0.80;;;20.80;35.00;;;;;;5074740;28;20017;-73
2021/04/02 12:04:09;;;;;;;2.35;0.80;;;20.80;34.90;;;;;;5074759;28;20081;-74
2021/04/02 12:06:38;;;;;;;2.15;0.85;;;20.80;35.00;;;;;;5074625;28;20029;-75
2021/04/02 12:09:05;;;;;;;1.55;0.65;;;20.70;34.90;;;;;;5074347;28;20480;-74
2021/04/02 12:11:30;;;;;;;2.60;0.90;;;20.80;34.90;;;;;;5074301;28;20039;-74
2021/04/02 12:13:56;;;;;;;3.30;1.25;;;20.80;34.80;;;;;;5074744;28;20029;-74
2021/04/02 12:16:22;;;;;;;2.78;0.98;;;20.80;34.80;;;;;;5074565;28;20025;-74
2021/04/02 12:18:47;;;;;;;2.92;0.95;;;20.80;34.80;;;;;;5074335;28;20471;-74
2021/04/02 12:21:13;;;;;;;3.38;0.90;;;20.80;34.80;;;;;;5072811;28;20045;-74
2021/04/02 12:23:39;;;;;;;1.77;0.70;;;20.80;34.80;;;;;;5074166;28;20113;-74
2021/04/02 12:26:04;;;;;;;3.28;0.95;;;20.80;34.80;;;;;;5074402;28;20025;-74
2021/04/02 12:28:30;;;;;;;2.55;0.85;;;20.80;34.70;;;;;;5074036;28;20534;-72
2021/04/02 12:30:56;;;;;;;2.58;0.90;;;20.90;34.70;;;;;;5073265;28;20074;-74
2021/04/02 12:33:22;;;;;;;2.45;1.00;;;20.80;34.70;;;;;;5073704;28;20113;-73
2021/04/02 12:35:47;;;;;;;3.50;0.90;;;20.80;34.60;;;;;;5073811;28;20049;-73
2021/04/02 12:38:13;;;;;;;4.85;1.60;;;20.80;34.60;;;;;;5074044;28;20380;-74
2021/04/02 12:40:38;;;;;;;3.13;0.90;;;20.80;34.60;;;;;;5073939;28;20058;-73
2021/04/02 12:43:05;;;;;;;3.30;0.93;;;20.80;34.60;;;;;;5073937;28;20021;-73
2021/04/02 12:45:32;;;;;;;3.88;1.00;;;20.80;34.60;;;;;;5073866;28;20032;-75
2021/04/02 12:47:58;;;;;;;3.25;0.98;;;20.80;34.70;;;;;;5073765;28;20047;-74
2021/04/02 12:50:26;;;;;;;2.78;0.95;;;20.80;34.60;;;;;;5073578;28;20020;-74
2021/04/02 12:52:52;;;;;;;5.70;1.10;;;20.80;34.70;;;;;;5073798;28;20033;-73